Aérodrome :







RETROUVEZ-NOUS SUR...

 
LOGIN :

S'inscrire | Disclaimer

   EN    FR    IT 

 









Légende :    VFR   VFR Marginal   IFR   IFR Intensif   IFR Très Intensif
Visi : 
Plafond : 
>= 8 km
>= 3000ft
5 à 8 km
1000 à 3000 ft
1500m à 5 km
500 à 1000 ft
800 à 1500m
200 à 500 ft
< 800m
< 200 ft
Symboles :   Orages  Brouillard  Fortes neiges  Fortes précipitations  Vent > 20 kt






- Altitude de l'aérodrome : 39 ft
- Code IATA : YNA


CYNA - Natashquan

DERNIER METAR :
  • 172200Z AUTO 35009G15KT 9SM CLR M20/M28 A3009 RMK SLP191

METARs EXPIRÉS :
  • 172100Z AUTO 33011G18KT 9SM CLR M19/M28 A3007 RMK PRESRR SLP185
  • 172000Z AUTO 32014KT 9SM CLR M19/M27 A3004 RMK SLP175

TAF TAF CYNA
Valide du 17 à 20h jusqu'au 18 à 08h UTC


171938Z 1720/1808 34015G25KT P6SM SKC RMK FCST BASED ON AUTO OBS. NXT FCST BY 180200Z



MET'MAP, la Météo Aéronautique d'un coup d'oeil ! - Copyright ORBIFLY Décembre 2007 - Disclaimer

ORBIFLY MET'MAP TEAM :

Programmation & Développement : Alexandra Zaïnal
Sur une idée originale de : Baudouin d'Aumeries
Assistance à la programmation : Marc-Olivier Méhu
Soutien technique & logistique : Manuel Goepfert

Contact : metmap@orbifly.com




SOURCES & CREDITS :

   NOAA